sensor_id;sensor_type;location;lat;lon;timestamp;temperature;humidity
7307;DHT22;3694;48.732;9.248;2023-03-01T00:01:06;-1.90;97.10
7307;DHT22;3694;48.732;9.248;2023-03-01T00:03:32;-1.90;97.20
7307;DHT22;3694;48.732;9.248;2023-03-01T00:05:58;-2.00;97.40
7307;DHT22;3694;48.732;9.248;2023-03-01T00:08:24;-2.10;97.50
7307;DHT22;3694;48.732;9.248;2023-03-01T00:11:00;-2.20;97.70
7307;DHT22;3694;48.732;9.248;2023-03-01T00:13:26;-2.30;98.00
7307;DHT22;3694;48.732;9.248;2023-03-01T00:15:51;-2.40;98.10
7307;DHT22;3694;48.732;9.248;2023-03-01T00:18:17;-2.60;98.20
7307;DHT22;3694;48.732;9.248;2023-03-01T00:20:52;-2.70;98.50
7307;DHT22;3694;48.732;9.248;2023-03-01T00:23:18;-2.80;98.80
7307;DHT22;3694;48.732;9.248;2023-03-01T00:25:44;-2.90;99.30
7307;DHT22;3694;48.732;9.248;2023-03-01T00:28:09;-2.70;99.50
7307;DHT22;3694;48.732;9.248;2023-03-01T00:30:35;-2.70;99.30
7307;DHT22;3694;48.732;9.248;2023-03-01T00:33:00;-2.80;99.60
7307;DHT22;3694;48.732;9.248;2023-03-01T00:35:26;-2.80;99.90
7307;DHT22;3694;48.732;9.248;2023-03-01T00:37:51;-2.90;99.90
7307;DHT22;3694;48.732;9.248;2023-03-01T00:40:23;-3.00;99.90
7307;DHT22;3694;48.732;9.248;2023-03-01T00:42:49;-3.10;99.90
7307;DHT22;3694;48.732;9.248;2023-03-01T00:45:15;-3.10;99.90
7307;DHT22;3694;48.732;9.248;2023-03-01T00:47:40;-3.00;99.90
7307;DHT22;3694;48.732;9.248;2023-03-01T00:50:06;-2.90;99.90
7307;DHT22;3694;48.732;9.248;2023-03-01T00:52:32;-2.90;99.90
7307;DHT22;3694;48.732;9.248;2023-03-01T00:54:58;-3.00;99.90
7307;DHT22;3694;48.732;9.248;2023-03-01T00:57:23;-3.00;99.90
7307;DHT22;3694;48.732;9.248;2023-03-01T00:59:49;-2.90;99.90
7307;DHT22;3694;48.732;9.248;2023-03-01T01:02:15;-2.90;99.90
7307;DHT22;3694;48.732;9.248;2023-03-01T01:04:40;-2.80;99.90
7307;DHT22;3694;48.732;9.248;2023-03-01T01:07:06;-2.80;99.90
7307;DHT22;3694;48.732;9.248;2023-03-01T01:09:31;-2.70;99.90
7307;DHT22;3694;48.732;9.248;2023-03-01T01:11:57;-2.50;99.90
7307;DHT22;3694;48.732;9.248;2023-03-01T01:14:22;-2.50;99.90
7307;DHT22;3694;48.732;9.248;2023-03-01T01:16:48;-2.40;99.90
7307;DHT22;3694;48.732;9.248;2023-03-01T01:19:14;-2.50;99.90
7307;DHT22;3694;48.732;9.248;2023-03-01T01:21:40;-2.30;99.90
7307;DHT22;3694;48.732;9.248;2023-03-01T01:24:08;-2.40;99.90
7307;DHT22;3694;48.732;9.248;2023-03-01T01:26:34;-2.50;99.90
7307;DHT22;3694;48.732;9.248;2023-03-01T01:29:02;-2.40;99.90
7307;DHT22;3694;48.732;9.248;2023-03-01T01:31:28;-2.30;99.90
7307;DHT22;3694;48.732;9.248;2023-03-01T01:33:56;-2.20;99.90
7307;DHT22;3694;48.732;9.248;2023-03-01T01:36:22;-2.10;99.90
7307;DHT22;3694;48.732;9.248;2023-03-01T01:38:47;-2.20;99.90
7307;DHT22;3694;48.732;9.248;2023-03-01T01:41:14;-2.10;99.90
7307;DHT22;3694;48.732;9.248;2023-03-01T01:44:27;-2.20;99.90
7307;DHT22;3694;48.732;9.248;2023-03-01T01:46:40;-2.00;99.90
7307;DHT22;3694;48.732;9.248;2023-03-01T01:49:24;-1.80;99.70
7307;DHT22;3694;48.732;9.248;2023-03-01T01:51:57;-1.60;99.10
7307;DHT22;3694;48.732;9.248;2023-03-01T01:54:31;-1.50;98.90
7307;DHT22;3694;48.732;9.248;2023-03-01T01:57:03;-1.50;98.80
7307;DHT22;3694;48.732;9.248;2023-03-01T01:59:30;-1.40;99.00
7307;DHT22;3694;48.732;9.248;2023-03-01T02:01:59;-1.40;99.00
7307;DHT22;3694;48.732;9.248;2023-03-01T02:04:26;-1.20;98.40
7307;DHT22;3694;48.732;9.248;2023-03-01T02:07:01;-1.30;98.70
7307;DHT22;3694;48.732;9.248;2023-03-01T02:09:27;-1.30;99.20
7307;DHT22;3694;48.732;9.248;2023-03-01T02:11:53;-1.30;98.40
7307;DHT22;3694;48.732;9.248;2023-03-01T02:14:19;-1.20;98.60
7307;DHT22;3694;48.732;9.248;2023-03-01T02:16:45;-1.20;98.80
7307;DHT22;3694;48.732;9.248;2023-03-01T02:19:20;-1.30;98.10
7307;DHT22;3694;48.732;9.248;2023-03-01T02:22:02;-1.20;98.10
7307;DHT22;3694;48.732;9.248;2023-03-01T02:24:40;-1.10;98.20
7307;DHT22;3694;48.732;9.248;2023-03-01T02:27:09;-1.10;97.80
7307;DHT22;3694;48.732;9.248;2023-03-01T02:29:35;-1.10;97.90
7307;DHT22;3694;48.732;9.248;2023-03-01T02:32:02;-1.10;98.10
7307;DHT22;3694;48.732;9.248;2023-03-01T02:34:30;-1.20;98.20
7307;DHT22;3694;48.732;9.248;2023-03-01T02:37:11;-1.20;97.90
7307;DHT22;3694;48.732;9.248;2023-03-01T02:39:47;-1.10;97.80
7307;DHT22;3694;48.732;9.248;2023-03-01T02:42:21;-1.10;97.90
7307;DHT22;3694;48.732;9.248;2023-03-01T02:44:49;-1.10;97.80
7307;DHT22;3694;48.732;9.248;2023-03-01T02:47:15;-1.00;97.70
7307;DHT22;3694;48.732;9.248;2023-03-01T02:49:40;-1.10;97.90
7307;DHT22;3694;48.732;9.248;2023-03-01T02:52:37;-1.10;97.80
7307;DHT22;3694;48.732;9.248;2023-03-01T02:55:13;-1.10;98.00
7307;DHT22;3694;48.732;9.248;2023-03-01T02:57:41;-1.00;97.70
7307;DHT22;3694;48.732;9.248;2023-03-01T03:00:11;-1.10;98.20
7307;DHT22;3694;48.732;9.248;2023-03-01T03:02:51;-1.00;97.70
7307;DHT22;3694;48.732;9.248;2023-03-01T03:05:23;-1.00;98.10
7307;DHT22;3694;48.732;9.248;2023-03-01T03:07:49;-1.10;98.30
7307;DHT22;3694;48.732;9.248;2023-03-01T03:10:19;-1.10;98.00
7307;DHT22;3694;48.732;9.248;2023-03-01T03:12:53;-0.80;97.70
7307;DHT22;3694;48.732;9.248;2023-03-01T03:15:19;-1.10;97.60
7307;DHT22;3694;48.732;9.248;2023-03-01T03:17:45;-1.10;97.80
7307;DHT22;3694;48.732;9.248;2023-03-01T03:20:18;-1.10;98.10
7307;DHT22;3694;48.732;9.248;2023-03-01T03:22:47;-1.10;98.20
7307;DHT22;3694;48.732;9.248;2023-03-01T03:25:13;-1.20;97.90
7307;DHT22;3694;48.732;9.248;2023-03-01T03:27:40;-1.20;98.30
7307;DHT22;3694;48.732;9.248;2023-03-01T03:30:08;-1.10;98.40
7307;DHT22;3694;48.732;9.248;2023-03-01T03:32:41;-1.10;97.90
7307;DHT22;3694;48.732;9.248;2023-03-01T03:35:09;-1.10;97.70
7307;DHT22;3694;48.732;9.248;2023-03-01T03:37:39;-1.00;98.40
7307;DHT22;3694;48.732;9.248;2023-03-01T03:40:24;-1.10;97.80
7307;DHT22;3694;48.732;9.248;2023-03-01T03:42:52;-1.10;98.40
7307;DHT22;3694;48.732;9.248;2023-03-01T03:45:18;-1.10;98.30
7307;DHT22;3694;48.732;9.248;2023-03-01T03:47:44;-1.10;97.80
7307;DHT22;3694;48.732;9.248;2023-03-01T03:50:12;-1.10;98.00
7307;DHT22;3694;48.732;9.248;2023-03-01T03:52:37;-1.10;98.20
7307;DHT22;3694;48.732;9.248;2023-03-01T03:55:04;-1.10;98.20
7307;DHT22;3694;48.732;9.248;2023-03-01T03:57:41;-1.10;98.40
7307;DHT22;3694;48.732;9.248;2023-03-01T04:00:09;-1.00;97.80
7307;DHT22;3694;48.732;9.248;2023-03-01T04:02:45;-1.00;97.70
7307;DHT22;3694;48.732;9.248;2023-03-01T04:05:13;-1.00;97.70
7307;DHT22;3694;48.732;9.248;2023-03-01T04:07:39;-1.00;98.10
7307;DHT22;3694;48.732;9.248;2023-03-01T04:10:09;-1.00;97.80
7307;DHT22;3694;48.732;9.248;2023-03-01T04:12:35;-1.00;98.20
7307;DHT22;3694;48.732;9.248;2023-03-01T04:15:03;-1.00;98.40
7307;DHT22;3694;48.732;9.248;2023-03-01T04:17:41;-1.00;98.20
7307;DHT22;3694;48.732;9.248;2023-03-01T04:20:11;-1.00;98.50
7307;DHT22;3694;48.732;9.248;2023-03-01T04:22:38;-1.00;98.10
7307;DHT22;3694;48.732;9.248;2023-03-01T04:25:04;-0.90;98.70
7307;DHT22;3694;48.732;9.248;2023-03-01T04:27:35;-1.00;98.50
7307;DHT22;3694;48.732;9.248;2023-03-01T04:30:02;-1.00;98.80
7307;DHT22;3694;48.732;9.248;2023-03-01T04:32:28;-1.00;97.90
7307;DHT22;3694;48.732;9.248;2023-03-01T04:34:54;-0.90;98.00
7307;DHT22;3694;48.732;9.248;2023-03-01T04:37:19;-1.00;98.10
7307;DHT22;3694;48.732;9.248;2023-03-01T04:39:45;-1.00;97.80
7307;DHT22;3694;48.732;9.248;2023-03-01T04:42:14;-1.00;98.00
7307;DHT22;3694;48.732;9.248;2023-03-01T04:44:39;-1.00;98.00
7307;DHT22;3694;48.732;9.248;2023-03-01T04:47:05;-1.00;98.00
7307;DHT22;3694;48.732;9.248;2023-03-01T04:49:31;-1.50;97.50
7307;DHT22;3694;48.732;9.248;2023-03-01T04:51:56;-0.90;97.60
7307;DHT22;3694;48.732;9.248;2023-03-01T04:54:27;-0.80;97.90
7307;DHT22;3694;48.732;9.248;2023-03-01T04:56:53;-0.90;97.70
7307;DHT22;3694;48.732;9.248;2023-03-01T04:59:19;-0.90;98.10
7307;DHT22;3694;48.732;9.248;2023-03-01T05:01:51;-0.90;98.00
7307;DHT22;3694;48.732;9.248;2023-03-01T05:04:17;-0.80;97.50
7307;DHT22;3694;48.732;9.248;2023-03-01T05:06:42;-0.80;97.70
7307;DHT22;3694;48.732;9.248;2023-03-01T05:09:08;-0.80;97.90
7307;DHT22;3694;48.732;9.248;2023-03-01T05:11:33;-0.80;97.60
7307;DHT22;3694;48.732;9.248;2023-03-01T05:14:02;-0.80;97.90
7307;DHT22;3694;48.732;9.248;2023-03-01T05:16:28;-0.70;97.60
7307;DHT22;3694;48.732;9.248;2023-03-01T05:18:55;-0.70;97.90
7307;DHT22;3694;48.732;9.248;2023-03-01T05:21:22;-0.70;97.60
7307;DHT22;3694;48.732;9.248;2023-03-01T05:23:47;-0.70;97.40
7307;DHT22;3694;48.732;9.248;2023-03-01T05:26:13;-0.70;97.40
7307;DHT22;3694;48.732;9.248;2023-03-01T05:28:39;-0.70;97.20
7307;DHT22;3694;48.732;9.248;2023-03-01T05:31:05;-0.50;97.50
7307;DHT22;3694;48.732;9.248;2023-03-01T05:33:38;-0.70;97.40
7307;DHT22;3694;48.732;9.248;2023-03-01T05:36:04;-0.60;97.40
7307;DHT22;3694;48.732;9.248;2023-03-01T05:38:30;-0.70;97.50
7307;DHT22;3694;48.732;9.248;2023-03-01T05:40:56;-0.70;97.70
7307;DHT22;3694;48.732;9.248;2023-03-01T05:43:21;-0.60;97.30
7307;DHT22;3694;48.732;9.248;2023-03-01T05:45:47;-0.60;97.20
7307;DHT22;3694;48.732;9.248;2023-03-01T05:48:13;-0.60;97.30
7307;DHT22;3694;48.732;9.248;2023-03-01T05:50:41;-0.60;97.60
7307;DHT22;3694;48.732;9.248;2023-03-01T05:53:11;-0.70;97.90
7307;DHT22;3694;48.732;9.248;2023-03-01T05:55:38;-0.70;97.90
7307;DHT22;3694;48.732;9.248;2023-03-01T05:58:07;-0.70;98.10
7307;DHT22;3694;48.732;9.248;2023-03-01T06:00:33;-0.70;98.20
7307;DHT22;3694;48.732;9.248;2023-03-01T06:02:59;-0.50;97.90
7307;DHT22;3694;48.732;9.248;2023-03-01T06:05:25;-0.70;97.50
7307;DHT22;3694;48.732;9.248;2023-03-01T06:07:51;-0.70;98.00
7307;DHT22;3694;48.732;9.248;2023-03-01T06:10:19;-0.70;98.00
7307;DHT22;3694;48.732;9.248;2023-03-01T06:12:45;-0.70;98.10
7307;DHT22;3694;48.732;9.248;2023-03-01T06:15:13;-0.70;98.20
7307;DHT22;3694;48.732;9.248;2023-03-01T06:17:41;-0.80;98.50
7307;DHT22;3694;48.732;9.248;2023-03-01T06:20:10;-0.80;98.10
7307;DHT22;3694;48.732;9.248;2023-03-01T06:22:36;-0.80;98.00
7307;DHT22;3694;48.732;9.248;2023-03-01T06:25:02;-0.80;98.00
7307;DHT22;3694;48.732;9.248;2023-03-01T06:27:28;-0.80;98.60
7307;DHT22;3694;48.732;9.248;2023-03-01T06:29:53;-0.70;98.00
7307;DHT22;3694;48.732;9.248;2023-03-01T06:32:19;-0.70;98.40
7307;DHT22;3694;48.732;9.248;2023-03-01T06:34:44;-0.70;97.60
7307;DHT22;3694;48.732;9.248;2023-03-01T06:37:10;-0.60;97.40
7307;DHT22;3694;48.732;9.248;2023-03-01T06:39:36;-0.60;98.10
7307;DHT22;3694;48.732;9.248;2023-03-01T06:42:01;-0.50;97.40
7307;DHT22;3694;48.732;9.248;2023-03-01T06:44:27;-0.50;97.50
7307;DHT22;3694;48.732;9.248;2023-03-01T06:46:53;-0.40;97.40
7307;DHT22;3694;48.732;9.248;2023-03-01T06:49:19;-0.40;97.60
7307;DHT22;3694;48.732;9.248;2023-03-01T06:51:45;-0.40;97.80
7307;DHT22;3694;48.732;9.248;2023-03-01T06:54:11;-0.60;97.80
7307;DHT22;3694;48.732;9.248;2023-03-01T06:56:37;-0.60;98.20
7307;DHT22;3694;48.732;9.248;2023-03-01T06:59:03;-0.80;98.60
7307;DHT22;3694;48.732;9.248;2023-03-01T07:01:29;-0.90;99.00
7307;DHT22;3694;48.732;9.248;2023-03-01T07:03:55;-1.00;99.20
7307;DHT22;3694;48.732;9.248;2023-03-01T07:06:24;-0.90;99.30
7307;DHT22;3694;48.732;9.248;2023-03-01T07:08:52;-1.00;99.60
7307;DHT22;3694;48.732;9.248;2023-03-01T07:11:18;-1.00;99.60
7307;DHT22;3694;48.732;9.248;2023-03-01T07:13:43;-1.00;99.50
7307;DHT22;3694;48.732;9.248;2023-03-01T07:16:09;-0.90;99.60
7307;DHT22;3694;48.732;9.248;2023-03-01T07:18:34;-0.30;99.00
7307;DHT22;3694;48.732;9.248;2023-03-01T07:21:12;0.50;97.30
7307;DHT22;3694;48.732;9.248;2023-03-01T07:23:37;1.00;96.60
7307;DHT22;3694;48.732;9.248;2023-03-01T07:26:03;1.40;95.50
7307;DHT22;3694;48.732;9.248;2023-03-01T07:28:29;1.70;95.00
7307;DHT22;3694;48.732;9.248;2023-03-01T07:31:00;1.80;94.50
7307;DHT22;3694;48.732;9.248;2023-03-01T07:33:26;1.90;94.10
7307;DHT22;3694;48.732;9.248;2023-03-01T07:35:59;1.80;93.70
7307;DHT22;3694;48.732;9.248;2023-03-01T07:38:26;1.70;93.40
7307;DHT22;3694;48.732;9.248;2023-03-01T07:40:52;1.70;93.50
7307;DHT22;3694;48.732;9.248;2023-03-01T07:43:17;1.70;93.20
7307;DHT22;3694;48.732;9.248;2023-03-01T07:45:43;1.80;93.40
7307;DHT22;3694;48.732;9.248;2023-03-01T07:48:09;1.80;93.30
7307;DHT22;3694;48.732;9.248;2023-03-01T07:50:35;1.90;93.20
7307;DHT22;3694;48.732;9.248;2023-03-01T07:53:00;2.00;93.10
7307;DHT22;3694;48.732;9.248;2023-03-01T07:55:26;2.10;92.70
7307;DHT22;3694;48.732;9.248;2023-03-01T07:57:51;2.10;92.30
7307;DHT22;3694;48.732;9.248;2023-03-01T08:00:17;2.10;92.50
7307;DHT22;3694;48.732;9.248;2023-03-01T08:02:42;2.10;92.30
7307;DHT22;3694;48.732;9.248;2023-03-01T08:05:09;2.00;92.30
7307;DHT22;3694;48.732;9.248;2023-03-01T08:07:35;2.10;92.00
7307;DHT22;3694;48.732;9.248;2023-03-01T08:10:01;2.00;92.00
7307;DHT22;3694;48.732;9.248;2023-03-01T08:12:26;1.90;92.30
7307;DHT22;3694;48.732;9.248;2023-03-01T08:14:53;2.00;92.00
7307;DHT22;3694;48.732;9.248;2023-03-01T08:17:19;1.80;91.80
7307;DHT22;3694;48.732;9.248;2023-03-01T08:19:44;2.00;92.30
7307;DHT22;3694;48.732;9.248;2023-03-01T08:22:10;1.80;92.00
7307;DHT22;3694;48.732;9.248;2023-03-01T08:24:36;1.70;92.20
7307;DHT22;3694;48.732;9.248;2023-03-01T08:27:01;1.80;92.10
7307;DHT22;3694;48.732;9.248;2023-03-01T08:29:30;1.80;91.90
7307;DHT22;3694;48.732;9.248;2023-03-01T08:31:56;1.90;92.00
7307;DHT22;3694;48.732;9.248;2023-03-01T08:34:21;2.00;92.40
7307;DHT22;3694;48.732;9.248;2023-03-01T08:36:47;1.90;91.90
7307;DHT22;3694;48.732;9.248;2023-03-01T08:39:15;1.80;92.60
7307;DHT22;3694;48.732;9.248;2023-03-01T08:41:41;1.90;92.20
7307;DHT22;3694;48.732;9.248;2023-03-01T08:44:08;2.00;92.00
7307;DHT22;3694;48.732;9.248;2023-03-01T08:46:39;2.10;92.10
7307;DHT22;3694;48.732;9.248;2023-03-01T08:49:17;2.00;91.90
7307;DHT22;3694;48.732;9.248;2023-03-01T08:51:43;2.00;92.00
7307;DHT22;3694;48.732;9.248;2023-03-01T08:54:14;2.10;91.50
7307;DHT22;3694;48.732;9.248;2023-03-01T08:56:40;2.10;91.70
7307;DHT22;3694;48.732;9.248;2023-03-01T08:59:07;2.10;91.80
7307;DHT22;3694;48.732;9.248;2023-03-01T09:01:32;2.20;92.10
7307;DHT22;3694;48.732;9.248;2023-03-01T09:03:58;2.20;91.50
7307;DHT22;3694;48.732;9.248;2023-03-01T09:06:23;2.10;91.40
7307;DHT22;3694;48.732;9.248;2023-03-01T09:08:50;2.00;91.70
7307;DHT22;3694;48.732;9.248;2023-03-01T09:11:18;2.30;91.80
7307;DHT22;3694;48.732;9.248;2023-03-01T09:13:46;2.20;92.20
7307;DHT22;3694;48.732;9.248;2023-03-01T09:16:14;2.70;91.20
7307;DHT22;3694;48.732;9.248;2023-03-01T09:18:40;2.60;91.70
7307;DHT22;3694;48.732;9.248;2023-03-01T09:21:09;2.60;91.20
7307;DHT22;3694;48.732;9.248;2023-03-01T09:23:36;2.80;91.50
7307;DHT22;3694;48.732;9.248;2023-03-01T09:26:02;2.90;90.50
7307;DHT22;3694;48.732;9.248;2023-03-01T09:28:28;2.60;91.00
7307;DHT22;3694;48.732;9.248;2023-03-01T09:30:57;2.70;90.90
7307;DHT22;3694;48.732;9.248;2023-03-01T09:33:22;2.70;91.00
7307;DHT22;3694;48.732;9.248;2023-03-01T09:35:48;2.70;90.30
7307;DHT22;3694;48.732;9.248;2023-03-01T09:38:13;2.70;91.40
7307;DHT22;3694;48.732;9.248;2023-03-01T09:40:43;2.70;90.40
7307;DHT22;3694;48.732;9.248;2023-03-01T09:45:59;2.60;90.90
7307;DHT22;3694;48.732;9.248;2023-03-01T09:48:41;2.70;90.90
7307;DHT22;3694;48.732;9.248;2023-03-01T09:51:14;2.70;90.40
7307;DHT22;3694;48.732;9.248;2023-03-01T09:53:42;2.60;90.10
7307;DHT22;3694;48.732;9.248;2023-03-01T09:56:20;2.80;90.90
7307;DHT22;3694;48.732;9.248;2023-03-01T09:58:53;2.90;91.30
7307;DHT22;3694;48.732;9.248;2023-03-01T10:01:34;3.10;90.20
7307;DHT22;3694;48.732;9.248;2023-03-01T10:04:20;3.00;89.70
7307;DHT22;3694;48.732;9.248;2023-03-01T10:07:03;2.70;89.90
7307;DHT22;3694;48.732;9.248;2023-03-01T10:09:34;3.00;90.70
7307;DHT22;3694;48.732;9.248;2023-03-01T10:12:00;3.20;90.20
7307;DHT22;3694;48.732;9.248;2023-03-01T10:14:38;3.20;89.20
7307;DHT22;3694;48.732;9.248;2023-03-01T10:17:30;3.20;90.10
7307;DHT22;3694;48.732;9.248;2023-03-01T10:22:39;3.20;88.10
7307;DHT22;3694;48.732;9.248;2023-03-01T10:25:04;3.40;90.00
7307;DHT22;3694;48.732;9.248;2023-03-01T10:27:44;3.60;89.70
7307;DHT22;3694;48.732;9.248;2023-03-01T10:32:49;3.70;87.90
7307;DHT22;3694;48.732;9.248;2023-03-01T10:35:19;3.90;89.90
7307;DHT22;3694;48.732;9.248;2023-03-01T10:38:06;3.80;89.30
7307;DHT22;3694;48.732;9.248;2023-03-01T10:40:33;3.80;87.80
7307;DHT22;3694;48.732;9.248;2023-03-01T10:43:03;3.70;86.80
7307;DHT22;3694;48.732;9.248;2023-03-01T10:48:23;3.90;85.50
7307;DHT22;3694;48.732;9.248;2023-03-01T10:51:06;3.90;84.50
7307;DHT22;3694;48.732;9.248;2023-03-01T10:53:45;4.00;85.70
7307;DHT22;3694;48.732;9.248;2023-03-01T10:56:14;4.10;86.50
7307;DHT22;3694;48.732;9.248;2023-03-01T10:59:00;4.20;85.30
7307;DHT22;3694;48.732;9.248;2023-03-01T11:01:33;4.20;84.20
7307;DHT22;3694;48.732;9.248;2023-03-01T11:04:18;4.20;82.80
7307;DHT22;3694;48.732;9.248;2023-03-01T11:06:43;4.40;84.40
7307;DHT22;3694;48.732;9.248;2023-03-01T11:09:23;4.30;84.80
7307;DHT22;3694;48.732;9.248;2023-03-01T11:12:00;4.40;84.50
7307;DHT22;3694;48.732;9.248;2023-03-01T11:14:36;4.50;85.50
7307;DHT22;3694;48.732;9.248;2023-03-01T11:19:41;4.70;85.10
7307;DHT22;3694;48.732;9.248;2023-03-01T11:22:14;4.70;82.10
7307;DHT22;3694;48.732;9.248;2023-03-01T11:24:49;4.70;83.30
7307;DHT22;3694;48.732;9.248;2023-03-01T11:27:23;4.70;83.20
7307;DHT22;3694;48.732;9.248;2023-03-01T11:29:56;4.80;84.90
7307;DHT22;3694;48.732;9.248;2023-03-01T11:32:25;4.90;84.00
7307;DHT22;3694;48.732;9.248;2023-03-01T11:34:57;4.90;82.60
7307;DHT22;3694;48.732;9.248;2023-03-01T11:41:10;5.10;84.50
7307;DHT22;3694;48.732;9.248;2023-03-01T11:43:28;5.10;83.10
7307;DHT22;3694;48.732;9.248;2023-03-01T11:57:54;5.50;82.00
7307;DHT22;3694;48.732;9.248;2023-03-01T12:06:00;5.80;79.40
7307;DHT22;3694;48.732;9.248;2023-03-01T12:11:16;5.90;79.70
7307;DHT22;3694;48.732;9.248;2023-03-01T12:14:29;5.80;79.80
7307;DHT22;3694;48.732;9.248;2023-03-01T12:26:26;6.30;78.40
7307;DHT22;3694;48.732;9.248;2023-03-01T12:28:52;6.40;78.80
7307;DHT22;3694;48.732;9.248;2023-03-01T12:50:54;6.90;78.80
7307;DHT22;3694;48.732;9.248;2023-03-01T12:53:30;7.00;80.50
7307;DHT22;3694;48.732;9.248;2023-03-01T12:56:02;7.00;76.90
7307;DHT22;3694;48.732;9.248;2023-03-01T12:58:35;6.90;76.40
7307;DHT22;3694;48.732;9.248;2023-03-01T13:01:16;7.00;76.80
7307;DHT22;3694;48.732;9.248;2023-03-01T13:06:30;6.80;77.70
7307;DHT22;3694;48.732;9.248;2023-03-01T13:11:57;6.90;77.90
7307;DHT22;3694;48.732;9.248;2023-03-01T13:16:49;6.80;75.80
7307;DHT22;3694;48.732;9.248;2023-03-01T13:19:36;6.70;77.50
7307;DHT22;3694;48.732;9.248;2023-03-01T13:22:25;6.70;74.60
7307;DHT22;3694;48.732;9.248;2023-03-01T13:30:59;7.00;75.70
7307;DHT22;3694;48.732;9.248;2023-03-01T13:35:54;7.20;74.60
7307;DHT22;3694;48.732;9.248;2023-03-01T13:44:32;7.20;75.30
7307;DHT22;3694;48.732;9.248;2023-03-01T13:47:18;7.10;74.10
7307;DHT22;3694;48.732;9.248;2023-03-01T13:49:59;7.00;75.40
7307;DHT22;3694;48.732;9.248;2023-03-01T13:52:39;7.10;76.50
7307;DHT22;3694;48.732;9.248;2023-03-01T13:55:27;7.20;75.80
7307;DHT22;3694;48.732;9.248;2023-03-01T13:58:00;7.30;75.10
7307;DHT22;3694;48.732;9.248;2023-03-01T14:00:37;7.40;75.50
7307;DHT22;3694;48.732;9.248;2023-03-01T14:03:10;7.40;74.20
7307;DHT22;3694;48.732;9.248;2023-03-01T14:05:37;7.20;74.80
7307;DHT22;3694;48.732;9.248;2023-03-01T14:08:04;7.10;73.80
7307;DHT22;3694;48.732;9.248;2023-03-01T14:11:10;7.20;74.80
7307;DHT22;3694;48.732;9.248;2023-03-01T14:13:55;7.40;76.10
7307;DHT22;3694;48.732;9.248;2023-03-01T14:19:16;7.30;75.60
7307;DHT22;3694;48.732;9.248;2023-03-01T14:21:43;7.20;75.60
7307;DHT22;3694;48.732;9.248;2023-03-01T14:24:18;7.10;77.80
7307;DHT22;3694;48.732;9.248;2023-03-01T14:26:45;7.00;75.90
7307;DHT22;3694;48.732;9.248;2023-03-01T14:29:27;6.90;73.20
7307;DHT22;3694;48.732;9.248;2023-03-01T14:32:09;6.90;74.80
7307;DHT22;3694;48.732;9.248;2023-03-01T14:34:35;6.80;74.90
7307;DHT22;3694;48.732;9.248;2023-03-01T14:37:21;6.80;75.20
7307;DHT22;3694;48.732;9.248;2023-03-01T14:39:48;6.90;73.50
7307;DHT22;3694;48.732;9.248;2023-03-01T14:42:14;6.80;74.10
7307;DHT22;3694;48.732;9.248;2023-03-01T14:44:42;6.80;74.10
7307;DHT22;3694;48.732;9.248;2023-03-01T14:47:26;6.80;74.00
7307;DHT22;3694;48.732;9.248;2023-03-01T14:49:59;6.70;73.60
7307;DHT22;3694;48.732;9.248;2023-03-01T14:52:34;6.60;75.90
7307;DHT22;3694;48.732;9.248;2023-03-01T14:55:03;6.60;74.60
7307;DHT22;3694;48.732;9.248;2023-03-01T14:57:30;6.60;74.60
7307;DHT22;3694;48.732;9.248;2023-03-01T14:59:58;6.60;74.30
7307;DHT22;3694;48.732;9.248;2023-03-01T15:02:26;6.60;74.30
7307;DHT22;3694;48.732;9.248;2023-03-01T15:04:58;6.60;74.90
7307;DHT22;3694;48.732;9.248;2023-03-01T15:07:35;6.60;74.50
7307;DHT22;3694;48.732;9.248;2023-03-01T15:10:04;6.60;74.20
7307;DHT22;3694;48.732;9.248;2023-03-01T15:12:38;6.50;75.30
7307;DHT22;3694;48.732;9.248;2023-03-01T15:17:54;6.40;74.10
7307;DHT22;3694;48.732;9.248;2023-03-01T15:20:22;6.40;74.00
7307;DHT22;3694;48.732;9.248;2023-03-01T15:22:51;6.40;74.20
7307;DHT22;3694;48.732;9.248;2023-03-01T15:25:19;6.30;74.40
7307;DHT22;3694;48.732;9.248;2023-03-01T15:27:47;6.30;73.40
7307;DHT22;3694;48.732;9.248;2023-03-01T15:30:19;6.20;74.20
7307;DHT22;3694;48.732;9.248;2023-03-01T15:32:45;6.20;73.20
7307;DHT22;3694;48.732;9.248;2023-03-01T15:35:43;6.20;74.20
7307;DHT22;3694;48.732;9.248;2023-03-01T15:38:28;6.10;74.20
7307;DHT22;3694;48.732;9.248;2023-03-01T15:40:56;6.00;74.50
7307;DHT22;3694;48.732;9.248;2023-03-01T15:43:58;6.00;73.50
7307;DHT22;3694;48.732;9.248;2023-03-01T15:46:33;5.90;74.70
7307;DHT22;3694;48.732;9.248;2023-03-01T15:49:05;5.90;75.00
7307;DHT22;3694;48.732;9.248;2023-03-01T15:51:36;5.80;75.80
7307;DHT22;3694;48.732;9.248;2023-03-01T15:54:17;5.90;74.90
7307;DHT22;3694;48.732;9.248;2023-03-01T15:56:43;5.80;74.50
7307;DHT22;3694;48.732;9.248;2023-03-01T15:59:11;5.80;74.40
7307;DHT22;3694;48.732;9.248;2023-03-01T16:01:41;5.80;74.60
7307;DHT22;3694;48.732;9.248;2023-03-01T16:04:06;5.70;73.50
7307;DHT22;3694;48.732;9.248;2023-03-01T16:06:32;5.70;74.50
7307;DHT22;3694;48.732;9.248;2023-03-01T16:08:57;5.70;75.30
7307;DHT22;3694;48.732;9.248;2023-03-01T16:11:23;5.50;74.80
7307;DHT22;3694;48.732;9.248;2023-03-01T16:13:49;5.60;73.90
7307;DHT22;3694;48.732;9.248;2023-03-01T16:16:16;5.20;74.40
7307;DHT22;3694;48.732;9.248;2023-03-01T16:18:43;5.40;73.80
7307;DHT22;3694;48.732;9.248;2023-03-01T16:21:33;5.30;75.10
7307;DHT22;3694;48.732;9.248;2023-03-01T16:23:58;5.20;74.70
7307;DHT22;3694;48.732;9.248;2023-03-01T16:26:24;5.10;74.20
7307;DHT22;3694;48.732;9.248;2023-03-01T16:28:49;5.10;74.90
7307;DHT22;3694;48.732;9.248;2023-03-01T16:31:19;5.00;74.60
7307;DHT22;3694;48.732;9.248;2023-03-01T16:33:45;4.90;74.80
7307;DHT22;3694;48.732;9.248;2023-03-01T16:36:16;4.90;74.30
7307;DHT22;3694;48.732;9.248;2023-03-01T16:38:42;4.90;75.30
7307;DHT22;3694;48.732;9.248;2023-03-01T16:41:15;4.80;74.70
7307;DHT22;3694;48.732;9.248;2023-03-01T16:43:42;4.80;74.20
7307;DHT22;3694;48.732;9.248;2023-03-01T16:46:35;4.80;74.60
7307;DHT22;3694;48.732;9.248;2023-03-01T16:49:00;4.60;74.50
7307;DHT22;3694;48.732;9.248;2023-03-01T16:51:26;4.50;75.50
7307;DHT22;3694;48.732;9.248;2023-03-01T16:53:52;4.50;74.90
7307;DHT22;3694;48.732;9.248;2023-03-01T16:56:18;4.50;74.60
7307;DHT22;3694;48.732;9.248;2023-03-01T16:58:44;4.50;74.70
7307;DHT22;3694;48.732;9.248;2023-03-01T17:01:12;4.50;75.00
7307;DHT22;3694;48.732;9.248;2023-03-01T17:03:39;4.40;74.90
7307;DHT22;3694;48.732;9.248;2023-03-01T17:06:06;4.30;75.30
7307;DHT22;3694;48.732;9.248;2023-03-01T17:08:32;4.30;75.10
7307;DHT22;3694;48.732;9.248;2023-03-01T17:11:06;4.10;76.30
7307;DHT22;3694;48.732;9.248;2023-03-01T17:13:32;3.90;75.50
7307;DHT22;3694;48.732;9.248;2023-03-01T17:15:59;3.80;75.90
7307;DHT22;3694;48.732;9.248;2023-03-01T17:18:25;3.80;75.40
7307;DHT22;3694;48.732;9.248;2023-03-01T17:20:50;3.80;76.10
7307;DHT22;3694;48.732;9.248;2023-03-01T17:23:16;3.80;76.40
7307;DHT22;3694;48.732;9.248;2023-03-01T17:25:44;3.80;76.20
7307;DHT22;3694;48.732;9.248;2023-03-01T17:28:11;3.70;76.50
7307;DHT22;3694;48.732;9.248;2023-03-01T17:30:37;3.60;76.40
7307;DHT22;3694;48.732;9.248;2023-03-01T17:33:05;3.60;76.80
7307;DHT22;3694;48.732;9.248;2023-03-01T17:35:31;3.60;76.40
7307;DHT22;3694;48.732;9.248;2023-03-01T17:38:01;3.60;76.60
7307;DHT22;3694;48.732;9.248;2023-03-01T17:40:27;3.70;76.90
7307;DHT22;3694;48.732;9.248;2023-03-01T17:42:52;3.70;76.90
7307;DHT22;3694;48.732;9.248;2023-03-01T17:45:18;3.80;77.00
7307;DHT22;3694;48.732;9.248;2023-03-01T17:47:43;3.40;77.40
7307;DHT22;3694;48.732;9.248;2023-03-01T17:50:09;3.30;78.40
7307;DHT22;3694;48.732;9.248;2023-03-01T17:52:36;3.20;77.90
7307;DHT22;3694;48.732;9.248;2023-03-01T17:55:02;3.20;78.40
7307;DHT22;3694;48.732;9.248;2023-03-01T17:57:27;3.10;78.90
7307;DHT22;3694;48.732;9.248;2023-03-01T17:59:53;3.00;79.10